sensor_id;sensor_type;location;lat;lon;timestamp;P1;durP1;ratioP1;P2;durP2;ratioP2
22097;SDS011;11215;51.938;8.464;2023-06-22T00:00:48;7.07;;;5.97;;
22097;SDS011;11215;51.938;8.464;2023-06-22T00:03:15;11.60;;;6.67;;
22097;SDS011;11215;51.938;8.464;2023-06-22T00:05:42;6.97;;;6.03;;
22097;SDS011;11215;51.938;8.464;2023-06-22T00:08:08;8.03;;;6.30;;
22097;SDS011;11215;51.938;8.464;2023-06-22T00:10:33;7.57;;;6.70;;
22097;SDS011;11215;51.938;8.464;2023-06-22T00:13:00;6.90;;;6.20;;
22097;SDS011;11215;51.938;8.464;2023-06-22T00:15:25;5.93;;;5.43;;
22097;SDS011;11215;51.938;8.464;2023-06-22T00:17:51;7.03;;;6.17;;
22097;SDS011;11215;51.938;8.464;2023-06-22T00:20:17;6.43;;;5.90;;
22097;SDS011;11215;51.938;8.464;2023-06-22T00:22:43;6.87;;;5.90;;
22097;SDS011;11215;51.938;8.464;2023-06-22T00:25:09;7.47;;;6.77;;
22097;SDS011;11215;51.938;8.464;2023-06-22T00:27:36;6.87;;;6.17;;
22097;SDS011;11215;51.938;8.464;2023-06-22T00:30:02;6.43;;;5.77;;
22097;SDS011;11215;51.938;8.464;2023-06-22T00:32:28;7.17;;;6.37;;
22097;SDS011;11215;51.938;8.464;2023-06-22T00:34:54;7.23;;;6.63;;
22097;SDS011;11215;51.938;8.464;2023-06-22T00:37:20;7.73;;;6.37;;
22097;SDS011;11215;51.938;8.464;2023-06-22T00:39:47;6.83;;;6.23;;
22097;SDS011;11215;51.938;8.464;2023-06-22T00:42:14;6.83;;;6.23;;
22097;SDS011;11215;51.938;8.464;2023-06-22T00:44:39;6.97;;;6.30;;
22097;SDS011;11215;51.938;8.464;2023-06-22T00:47:05;8.63;;;6.20;;
22097;SDS011;11215;51.938;8.464;2023-06-22T00:49:32;7.37;;;6.00;;
22097;SDS011;11215;51.938;8.464;2023-06-22T00:51:58;6.37;;;5.77;;
22097;SDS011;11215;51.938;8.464;2023-06-22T00:54:24;6.67;;;6.07;;
22097;SDS011;11215;51.938;8.464;2023-06-22T00:56:53;7.00;;;5.73;;
22097;SDS011;11215;51.938;8.464;2023-06-22T00:59:21;7.20;;;6.50;;
22097;SDS011;11215;51.938;8.464;2023-06-22T01:01:48;8.00;;;7.00;;
22097;SDS011;11215;51.938;8.464;2023-06-22T01:04:14;6.80;;;6.20;;
22097;SDS011;11215;51.938;8.464;2023-06-22T01:06:56;6.60;;;6.00;;
22097;SDS011;11215;51.938;8.464;2023-06-22T01:09:32;6.73;;;6.10;;
22097;SDS011;11215;51.938;8.464;2023-06-22T01:12:06;8.87;;;6.67;;
22097;SDS011;11215;51.938;8.464;2023-06-22T01:15:08;7.43;;;6.73;;
22097;SDS011;11215;51.938;8.464;2023-06-22T01:17:29;6.50;;;5.90;;
22097;SDS011;11215;51.938;8.464;2023-06-22T01:19:57;8.40;;;6.10;;
22097;SDS011;11215;51.938;8.464;2023-06-22T01:22:24;7.40;;;6.30;;
22097;SDS011;11215;51.938;8.464;2023-06-22T01:30:18;8.20;;;7.27;;
22097;SDS011;11215;51.938;8.464;2023-06-22T01:32:44;8.97;;;6.53;;
22097;SDS011;11215;51.938;8.464;2023-06-22T01:35:10;6.87;;;6.27;;
22097;SDS011;11215;51.938;8.464;2023-06-22T01:37:38;8.67;;;6.67;;
22097;SDS011;11215;51.938;8.464;2023-06-22T01:40:07;8.23;;;6.37;;
22097;SDS011;11215;51.938;8.464;2023-06-22T01:42:33;7.17;;;6.40;;
22097;SDS011;11215;51.938;8.464;2023-06-22T01:45:00;7.53;;;6.17;;
22097;SDS011;11215;51.938;8.464;2023-06-22T01:47:27;7.23;;;6.53;;
22097;SDS011;11215;51.938;8.464;2023-06-22T01:49:55;7.03;;;6.30;;
22097;SDS011;11215;51.938;8.464;2023-06-22T01:52:21;6.90;;;6.20;;
22097;SDS011;11215;51.938;8.464;2023-06-22T01:54:47;7.33;;;6.63;;
22097;SDS011;11215;51.938;8.464;2023-06-22T01:57:16;8.27;;;6.73;;
22097;SDS011;11215;51.938;8.464;2023-06-22T02:02:25;7.30;;;6.57;;
22097;SDS011;11215;51.938;8.464;2023-06-22T02:05:08;8.00;;;6.70;;
22097;SDS011;11215;51.938;8.464;2023-06-22T02:07:46;7.37;;;6.27;;
22097;SDS011;11215;51.938;8.464;2023-06-22T02:10:32;8.57;;;6.60;;
22097;SDS011;11215;51.938;8.464;2023-06-22T02:13:01;7.77;;;6.93;;
22097;SDS011;11215;51.938;8.464;2023-06-22T02:15:31;7.37;;;6.67;;
22097;SDS011;11215;51.938;8.464;2023-06-22T02:17:57;10.40;;;7.10;;
22097;SDS011;11215;51.938;8.464;2023-06-22T02:20:24;10.33;;;7.30;;
22097;SDS011;11215;51.938;8.464;2023-06-22T02:22:50;7.90;;;6.93;;
22097;SDS011;11215;51.938;8.464;2023-06-22T02:25:16;8.60;;;7.20;;
22097;SDS011;11215;51.938;8.464;2023-06-22T02:27:41;8.07;;;7.27;;
22097;SDS011;11215;51.938;8.464;2023-06-22T02:30:07;8.17;;;7.20;;
22097;SDS011;11215;51.938;8.464;2023-06-22T02:32:34;9.53;;;7.43;;
22097;SDS011;11215;51.938;8.464;2023-06-22T02:35:00;7.97;;;7.17;;
22097;SDS011;11215;51.938;8.464;2023-06-22T02:37:29;8.47;;;7.23;;
22097;SDS011;11215;51.938;8.464;2023-06-22T02:39:56;8.83;;;7.60;;
22097;SDS011;11215;51.938;8.464;2023-06-22T02:42:21;12.13;;;8.20;;
22097;SDS011;11215;51.938;8.464;2023-06-22T02:44:47;8.97;;;7.67;;
22097;SDS011;11215;51.938;8.464;2023-06-22T02:47:13;7.70;;;6.80;;
22097;SDS011;11215;51.938;8.464;2023-06-22T02:49:39;9.47;;;7.77;;
22097;SDS011;11215;51.938;8.464;2023-06-22T02:52:04;7.97;;;7.17;;
22097;SDS011;11215;51.938;8.464;2023-06-22T02:54:30;8.53;;;7.70;;
22097;SDS011;11215;51.938;8.464;2023-06-22T02:56:56;10.20;;;7.67;;
22097;SDS011;11215;51.938;8.464;2023-06-22T02:59:22;12.00;;;8.03;;
22097;SDS011;11215;51.938;8.464;2023-06-22T03:01:49;8.43;;;7.63;;
22097;SDS011;11215;51.938;8.464;2023-06-22T03:04:15;9.67;;;8.77;;
22097;SDS011;11215;51.938;8.464;2023-06-22T03:06:41;8.83;;;7.93;;
22097;SDS011;11215;51.938;8.464;2023-06-22T03:09:07;9.03;;;8.10;;
22097;SDS011;11215;51.938;8.464;2023-06-22T03:11:33;9.80;;;8.80;;
22097;SDS011;11215;51.938;8.464;2023-06-22T03:13:59;13.77;;;8.60;;
22097;SDS011;11215;51.938;8.464;2023-06-22T03:16:25;9.03;;;8.13;;
22097;SDS011;11215;51.938;8.464;2023-06-22T03:18:51;8.63;;;7.67;;
22097;SDS011;11215;51.938;8.464;2023-06-22T03:21:18;8.63;;;7.77;;
22097;SDS011;11215;51.938;8.464;2023-06-22T03:23:47;9.80;;;8.90;;
22097;SDS011;11215;51.938;8.464;2023-06-22T03:26:16;8.83;;;7.93;;
22097;SDS011;11215;51.938;8.464;2023-06-22T03:28:42;9.13;;;8.17;;
22097;SDS011;11215;51.938;8.464;2023-06-22T03:31:08;9.87;;;8.90;;
22097;SDS011;11215;51.938;8.464;2023-06-22T03:33:34;10.97;;;8.93;;
22097;SDS011;11215;51.938;8.464;2023-06-22T03:36:00;8.80;;;8.03;;
22097;SDS011;11215;51.938;8.464;2023-06-22T03:38:25;10.47;;;8.20;;
22097;SDS011;11215;51.938;8.464;2023-06-22T03:40:51;10.47;;;8.87;;
22097;SDS011;11215;51.938;8.464;2023-06-22T03:43:17;11.97;;;8.20;;
22097;SDS011;11215;51.938;8.464;2023-06-22T03:45:42;10.37;;;7.87;;
22097;SDS011;11215;51.938;8.464;2023-06-22T03:48:10;11.07;;;8.93;;
22097;SDS011;11215;51.938;8.464;2023-06-22T03:50:37;11.03;;;9.57;;
22097;SDS011;11215;51.938;8.464;2023-06-22T03:53:02;12.10;;;9.93;;
22097;SDS011;11215;51.938;8.464;2023-06-22T03:55:28;11.63;;;9.73;;
22097;SDS011;11215;51.938;8.464;2023-06-22T03:57:54;11.17;;;9.67;;
22097;SDS011;11215;51.938;8.464;2023-06-22T04:00:22;11.73;;;10.43;;
22097;SDS011;11215;51.938;8.464;2023-06-22T04:02:48;10.23;;;9.23;;
22097;SDS011;11215;51.938;8.464;2023-06-22T04:05:14;12.33;;;9.80;;
22097;SDS011;11215;51.938;8.464;2023-06-22T04:07:39;10.80;;;9.53;;
22097;SDS011;11215;51.938;8.464;2023-06-22T04:10:05;12.97;;;10.27;;
22097;SDS011;11215;51.938;8.464;2023-06-22T04:12:32;11.27;;;9.87;;
22097;SDS011;11215;51.938;8.464;2023-06-22T04:14:58;11.20;;;9.80;;
22097;SDS011;11215;51.938;8.464;2023-06-22T04:17:24;11.37;;;9.57;;
22097;SDS011;11215;51.938;8.464;2023-06-22T04:19:50;9.73;;;8.73;;
22097;SDS011;11215;51.938;8.464;2023-06-22T04:22:16;10.73;;;9.63;;
22097;SDS011;11215;51.938;8.464;2023-06-22T04:24:42;10.77;;;9.67;;
22097;SDS011;11215;51.938;8.464;2023-06-22T04:27:07;9.93;;;8.93;;
22097;SDS011;11215;51.938;8.464;2023-06-22T04:29:33;10.00;;;8.93;;
22097;SDS011;11215;51.938;8.464;2023-06-22T04:31:59;11.07;;;9.97;;
22097;SDS011;11215;51.938;8.464;2023-06-22T04:34:28;12.13;;;10.27;;
22097;SDS011;11215;51.938;8.464;2023-06-22T04:36:54;12.30;;;10.63;;
22097;SDS011;11215;51.938;8.464;2023-06-22T04:39:20;11.77;;;9.60;;
22097;SDS011;11215;51.938;8.464;2023-06-22T04:41:46;10.57;;;9.57;;
22097;SDS011;11215;51.938;8.464;2023-06-22T04:44:13;11.63;;;10.13;;
22097;SDS011;11215;51.938;8.464;2023-06-22T04:46:48;11.87;;;10.77;;
22097;SDS011;11215;51.938;8.464;2023-06-22T04:49:18;11.47;;;10.37;;
22097;SDS011;11215;51.938;8.464;2023-06-22T04:51:45;11.47;;;10.37;;
22097;SDS011;11215;51.938;8.464;2023-06-22T04:54:11;10.77;;;9.67;;
22097;SDS011;11215;51.938;8.464;2023-06-22T04:56:37;12.10;;;10.90;;
22097;SDS011;11215;51.938;8.464;2023-06-22T04:59:05;12.23;;;10.80;;
22097;SDS011;11215;51.938;8.464;2023-06-22T05:01:31;12.30;;;10.30;;
22097;SDS011;11215;51.938;8.464;2023-06-22T05:03:57;11.53;;;10.33;;
22097;SDS011;11215;51.938;8.464;2023-06-22T05:06:26;11.53;;;10.43;;
22097;SDS011;11215;51.938;8.464;2023-06-22T05:08:53;10.90;;;9.80;;
22097;SDS011;11215;51.938;8.464;2023-06-22T05:11:23;12.43;;;9.67;;
22097;SDS011;11215;51.938;8.464;2023-06-22T05:13:50;11.37;;;10.10;;
22097;SDS011;11215;51.938;8.464;2023-06-22T05:16:15;10.67;;;9.67;;
22097;SDS011;11215;51.938;8.464;2023-06-22T05:18:41;10.43;;;9.37;;
22097;SDS011;11215;51.938;8.464;2023-06-22T05:21:08;11.23;;;10.13;;
22097;SDS011;11215;51.938;8.464;2023-06-22T05:23:34;10.60;;;9.53;;
22097;SDS011;11215;51.938;8.464;2023-06-22T05:25:59;11.03;;;9.83;;
22097;SDS011;11215;51.938;8.464;2023-06-22T05:28:25;10.67;;;9.53;;
22097;SDS011;11215;51.938;8.464;2023-06-22T05:30:51;11.82;;;9.50;;
22097;SDS011;11215;51.938;8.464;2023-06-22T05:33:16;10.05;;;9.15;;
22097;SDS011;11215;51.938;8.464;2023-06-22T05:35:42;9.25;;;8.30;;
22097;SDS011;11215;51.938;8.464;2023-06-22T05:38:08;10.52;;;9.45;;
22097;SDS011;11215;51.938;8.464;2023-06-22T05:40:33;11.55;;;9.20;;
22097;SDS011;11215;51.938;8.464;2023-06-22T05:42:59;9.35;;;8.45;;
22097;SDS011;11215;51.938;8.464;2023-06-22T05:45:26;11.07;;;9.35;;
22097;SDS011;11215;51.938;8.464;2023-06-22T05:47:52;10.15;;;9.20;;
22097;SDS011;11215;51.938;8.464;2023-06-22T05:50:18;10.05;;;9.10;;
22097;SDS011;11215;51.938;8.464;2023-06-22T05:52:43;10.90;;;9.20;;
22097;SDS011;11215;51.938;8.464;2023-06-22T05:55:09;10.23;;;9.23;;
22097;SDS011;11215;51.938;8.464;2023-06-22T05:57:36;10.02;;;9.10;;
22097;SDS011;11215;51.938;8.464;2023-06-22T06:00:02;9.95;;;9.05;;
22097;SDS011;11215;51.938;8.464;2023-06-22T06:02:31;10.00;;;9.00;;
22097;SDS011;11215;51.938;8.464;2023-06-22T06:04:58;8.98;;;8.18;;
22097;SDS011;11215;51.938;8.464;2023-06-22T06:07:24;11.02;;;8.77;;
22097;SDS011;11215;51.938;8.464;2023-06-22T06:09:51;10.20;;;8.33;;
22097;SDS011;11215;51.938;8.464;2023-06-22T06:12:17;9.32;;;8.23;;
22097;SDS011;11215;51.938;8.464;2023-06-22T06:14:43;9.52;;;8.63;;
22097;SDS011;11215;51.938;8.464;2023-06-22T06:17:08;9.52;;;8.52;;
22097;SDS011;11215;51.938;8.464;2023-06-22T06:19:34;9.30;;;8.07;;
22097;SDS011;11215;51.938;8.464;2023-06-22T06:22:00;8.52;;;7.72;;
22097;SDS011;11215;51.938;8.464;2023-06-22T06:24:26;9.50;;;8.68;;
22097;SDS011;11215;51.938;8.464;2023-06-22T06:26:52;9.05;;;8.25;;
22097;SDS011;11215;51.938;8.464;2023-06-22T06:29:17;10.27;;;9.27;;
22097;SDS011;11215;51.938;8.464;2023-06-22T06:31:43;9.73;;;8.02;;
22097;SDS011;11215;51.938;8.464;2023-06-22T06:34:09;9.93;;;7.72;;
22097;SDS011;11215;51.938;8.464;2023-06-22T06:36:35;8.75;;;7.95;;
22097;SDS011;11215;51.938;8.464;2023-06-22T06:39:00;9.38;;;8.48;;
22097;SDS011;11215;51.938;8.464;2023-06-22T06:41:28;9.52;;;7.97;;
22097;SDS011;11215;51.938;8.464;2023-06-22T06:43:54;9.18;;;7.57;;
22097;SDS011;11215;51.938;8.464;2023-06-22T06:46:19;8.60;;;7.78;;
22097;SDS011;11215;51.938;8.464;2023-06-22T06:48:45;8.73;;;7.93;;
22097;SDS011;11215;51.938;8.464;2023-06-22T06:51:11;8.35;;;7.55;;
22097;SDS011;11215;51.938;8.464;2023-06-22T06:53:39;9.23;;;8.05;;
22097;SDS011;11215;51.938;8.464;2023-06-22T06:56:05;8.80;;;8.00;;
22097;SDS011;11215;51.938;8.464;2023-06-22T06:58:31;9.98;;;8.02;;
22097;SDS011;11215;51.938;8.464;2023-06-22T07:00:56;8.50;;;7.70;;
22097;SDS011;11215;51.938;8.464;2023-06-22T07:03:22;8.10;;;7.43;;
22097;SDS011;11215;51.938;8.464;2023-06-22T07:05:47;9.77;;;7.90;;
22097;SDS011;11215;51.938;8.464;2023-06-22T07:08:13;8.52;;;7.63;;
22097;SDS011;11215;51.938;8.464;2023-06-22T07:10:39;8.77;;;7.88;;
22097;SDS011;11215;51.938;8.464;2023-06-22T07:13:04;8.48;;;7.78;;
22097;SDS011;11215;51.938;8.464;2023-06-22T07:15:30;8.48;;;7.72;;
22097;SDS011;11215;51.938;8.464;2023-06-22T07:17:56;9.30;;;8.13;;
22097;SDS011;11215;51.938;8.464;2023-06-22T07:20:21;8.55;;;7.78;;
22097;SDS011;11215;51.938;8.464;2023-06-22T07:22:47;9.13;;;8.23;;
22097;SDS011;11215;51.938;8.464;2023-06-22T07:25:13;8.70;;;7.90;;
22097;SDS011;11215;51.938;8.464;2023-06-22T07:27:46;9.27;;;8.38;;
22097;SDS011;11215;51.938;8.464;2023-06-22T07:30:21;9.50;;;8.60;;
22097;SDS011;11215;51.938;8.464;2023-06-22T07:32:48;8.82;;;8.02;;
22097;SDS011;11215;51.938;8.464;2023-06-22T07:35:13;8.85;;;7.95;;
22097;SDS011;11215;51.938;8.464;2023-06-22T07:37:41;9.15;;;8.35;;
22097;SDS011;11215;51.938;8.464;2023-06-22T07:40:07;8.52;;;7.82;;
22097;SDS011;11215;51.938;8.464;2023-06-22T07:42:33;12.07;;;7.32;;
22097;SDS011;11215;51.938;8.464;2023-06-22T07:44:59;9.18;;;8.27;;
22097;SDS011;11215;51.938;8.464;2023-06-22T07:47:25;8.90;;;8.10;;
22097;SDS011;11215;51.938;8.464;2023-06-22T07:49:53;8.60;;;7.90;;
22097;SDS011;11215;51.938;8.464;2023-06-22T07:52:20;8.88;;;7.80;;
22097;SDS011;11215;51.938;8.464;2023-06-22T07:54:46;8.35;;;7.65;;
22097;SDS011;11215;51.938;8.464;2023-06-22T07:57:12;10.20;;;9.30;;
22097;SDS011;11215;51.938;8.464;2023-06-22T07:59:38;10.73;;;9.25;;
22097;SDS011;11215;51.938;8.464;2023-06-22T08:02:04;9.10;;;8.07;;
22097;SDS011;11215;51.938;8.464;2023-06-22T08:04:30;8.93;;;8.13;;
22097;SDS011;11215;51.938;8.464;2023-06-22T08:06:59;9.27;;;8.38;;
22097;SDS011;11215;51.938;8.464;2023-06-22T08:09:24;8.73;;;8.00;;
22097;SDS011;11215;51.938;8.464;2023-06-22T08:11:50;9.20;;;8.30;;
22097;SDS011;11215;51.938;8.464;2023-06-22T08:14:16;9.30;;;8.45;;
22097;SDS011;11215;51.938;8.464;2023-06-22T08:16:41;9.20;;;8.38;;
22097;SDS011;11215;51.938;8.464;2023-06-22T08:19:07;8.75;;;7.95;;
22097;SDS011;11215;51.938;8.464;2023-06-22T08:21:33;8.65;;;7.85;;
22097;SDS011;11215;51.938;8.464;2023-06-22T08:23:58;9.40;;;8.50;;
22097;SDS011;11215;51.938;8.464;2023-06-22T08:26:24;8.23;;;7.50;;
22097;SDS011;11215;51.938;8.464;2023-06-22T08:28:49;8.20;;;7.50;;
22097;SDS011;11215;51.938;8.464;2023-06-22T08:31:15;9.50;;;8.55;;
22097;SDS011;11215;51.938;8.464;2023-06-22T08:33:41;8.73;;;8.02;;
22097;SDS011;11215;51.938;8.464;2023-06-22T08:36:08;8.52;;;7.63;;
22097;SDS011;11215;51.938;8.464;2023-06-22T08:38:36;8.85;;;8.05;;
22097;SDS011;11215;51.938;8.464;2023-06-22T08:41:01;8.63;;;7.90;;
22097;SDS011;11215;51.938;8.464;2023-06-22T08:43:27;10.02;;;8.32;;
22097;SDS011;11215;51.938;8.464;2023-06-22T08:45:53;8.73;;;7.82;;
22097;SDS011;11215;51.938;8.464;2023-06-22T08:48:19;9.70;;;8.80;;
22097;SDS011;11215;51.938;8.464;2023-06-22T08:50:44;7.88;;;7.25;;
22097;SDS011;11215;51.938;8.464;2023-06-22T08:53:10;7.65;;;6.95;;
22097;SDS011;11215;51.938;8.464;2023-06-22T08:55:35;8.43;;;7.65;;
22097;SDS011;11215;51.938;8.464;2023-06-22T08:58:01;8.00;;;7.30;;
22097;SDS011;11215;51.938;8.464;2023-06-22T09:00:27;8.48;;;7.75;;
22097;SDS011;11215;51.938;8.464;2023-06-22T09:02:54;9.90;;;8.30;;
22097;SDS011;11215;51.938;8.464;2023-06-22T09:05:24;8.52;;;7.80;;
22097;SDS011;11215;51.938;8.464;2023-06-22T09:07:53;8.00;;;7.30;;
22097;SDS011;11215;51.938;8.464;2023-06-22T09:10:23;8.90;;;7.28;;
22097;SDS011;11215;51.938;8.464;2023-06-22T09:12:49;8.30;;;7.47;;
22097;SDS011;11215;51.938;8.464;2023-06-22T09:15:15;7.45;;;6.85;;
22097;SDS011;11215;51.938;8.464;2023-06-22T09:17:41;6.38;;;5.78;;
22097;SDS011;11215;51.938;8.464;2023-06-22T09:20:06;7.75;;;6.90;;
22097;SDS011;11215;51.938;8.464;2023-06-22T09:22:35;7.88;;;6.68;;
22097;SDS011;11215;51.938;8.464;2023-06-22T09:25:01;6.85;;;6.25;;
22097;SDS011;11215;51.938;8.464;2023-06-22T09:27:28;7.80;;;7.07;;
22097;SDS011;11215;51.938;8.464;2023-06-22T09:29:54;8.10;;;7.32;;
22097;SDS011;11215;51.938;8.464;2023-06-22T09:32:19;7.70;;;6.90;;
22097;SDS011;11215;51.938;8.464;2023-06-22T09:34:45;9.27;;;8.20;;
22097;SDS011;11215;51.938;8.464;2023-06-22T09:37:11;8.77;;;7.88;;
22097;SDS011;11215;51.938;8.464;2023-06-22T09:39:36;8.80;;;7.93;;
22097;SDS011;11215;51.938;8.464;2023-06-22T09:42:02;9.13;;;7.60;;
22097;SDS011;11215;51.938;8.464;2023-06-22T09:44:28;8.18;;;7.38;;
22097;SDS011;11215;51.938;8.464;2023-06-22T09:46:54;8.70;;;7.90;;
22097;SDS011;11215;51.938;8.464;2023-06-22T09:49:19;9.90;;;8.02;;
22097;SDS011;11215;51.938;8.464;2023-06-22T09:51:45;9.43;;;8.52;;
22097;SDS011;11215;51.938;8.464;2023-06-22T09:54:11;8.32;;;7.57;;
22097;SDS011;11215;51.938;8.464;2023-06-22T09:56:36;10.95;;;9.88;;
22097;SDS011;11215;51.938;8.464;2023-06-22T09:59:02;9.52;;;8.57;;
22097;SDS011;11215;51.938;8.464;2023-06-22T10:01:28;8.93;;;8.13;;
22097;SDS011;11215;51.938;8.464;2023-06-22T10:03:55;10.07;;;9.18;;
22097;SDS011;11215;51.938;8.464;2023-06-22T10:06:21;10.63;;;9.63;;
22097;SDS011;11215;51.938;8.464;2023-06-22T10:08:47;10.23;;;9.30;;
22097;SDS011;11215;51.938;8.464;2023-06-22T10:11:14;9.63;;;8.82;;
22097;SDS011;11215;51.938;8.464;2023-06-22T10:13:40;10.18;;;9.18;;
22097;SDS011;11215;51.938;8.464;2023-06-22T10:16:06;9.15;;;8.30;;
22097;SDS011;11215;51.938;8.464;2023-06-22T10:18:32;9.30;;;8.50;;
22097;SDS011;11215;51.938;8.464;2023-06-22T10:20:57;10.43;;;9.48;;
22097;SDS011;11215;51.938;8.464;2023-06-22T10:23:23;10.20;;;9.20;;
22097;SDS011;11215;51.938;8.464;2023-06-22T10:25:49;10.15;;;9.30;;
22097;SDS011;11215;51.938;8.464;2023-06-22T10:28:14;8.32;;;7.63;;
22097;SDS011;11215;51.938;8.464;2023-06-22T10:30:40;8.98;;;8.18;;
22097;SDS011;11215;51.938;8.464;2023-06-22T10:33:07;8.52;;;7.82;;
22097;SDS011;11215;51.938;8.464;2023-06-22T10:35:33;8.93;;;8.13;;
22097;SDS011;11215;51.938;8.464;2023-06-22T10:37:59;8.68;;;7.88;;
22097;SDS011;11215;51.938;8.464;2023-06-22T10:40:25;8.65;;;7.90;;
22097;SDS011;11215;51.938;8.464;2023-06-22T10:42:50;8.57;;;7.80;;
22097;SDS011;11215;51.938;8.464;2023-06-22T10:45:16;9.20;;;8.40;;
22097;SDS011;11215;51.938;8.464;2023-06-22T10:47:42;8.73;;;7.93;;
22097;SDS011;11215;51.938;8.464;2023-06-22T10:50:07;8.43;;;7.63;;
22097;SDS011;11215;51.938;8.464;2023-06-22T10:52:33;9.38;;;7.97;;
22097;SDS011;11215;51.938;8.464;2023-06-22T10:54:59;8.82;;;7.93;;
22097;SDS011;11215;51.938;8.464;2023-06-22T10:57:25;8.70;;;7.90;;
22097;SDS011;11215;51.938;8.464;2023-06-22T10:59:51;8.40;;;7.70;;
22097;SDS011;11215;51.938;8.464;2023-06-22T11:02:16;7.85;;;7.15;;
22097;SDS011;11215;51.938;8.464;2023-06-22T11:04:42;8.00;;;7.30;;
22097;SDS011;11215;51.938;8.464;2023-06-22T11:07:08;8.18;;;7.40;;
22097;SDS011;11215;51.938;8.464;2023-06-22T11:09:34;8.40;;;7.68;;
22097;SDS011;11215;51.938;8.464;2023-06-22T11:12:00;8.88;;;8.07;;
22097;SDS011;11215;51.938;8.464;2023-06-22T11:14:26;8.75;;;8.05;;
22097;SDS011;11215;51.938;8.464;2023-06-22T11:16:52;8.23;;;7.43;;
22097;SDS011;11215;51.938;8.464;2023-06-22T11:19:18;8.65;;;7.85;;
22097;SDS011;11215;51.938;8.464;2023-06-22T11:21:44;9.48;;;8.10;;
22097;SDS011;11215;51.938;8.464;2023-06-22T11:24:10;7.88;;;7.13;;
22097;SDS011;11215;51.938;8.464;2023-06-22T11:26:35;8.43;;;7.72;;
22097;SDS011;11215;51.938;8.464;2023-06-22T11:29:02;8.35;;;7.65;;
22097;SDS011;11215;51.938;8.464;2023-06-22T11:31:30;8.63;;;7.78;;
22097;SDS011;11215;51.938;8.464;2023-06-22T11:33:57;8.60;;;7.90;;
22097;SDS011;11215;51.938;8.464;2023-06-22T11:36:24;7.88;;;7.18;;
22097;SDS011;11215;51.938;8.464;2023-06-22T11:38:50;8.75;;;7.95;;
22097;SDS011;11215;51.938;8.464;2023-06-22T11:41:16;8.27;;;7.57;;
22097;SDS011;11215;51.938;8.464;2023-06-22T11:43:42;8.80;;;8.00;;
22097;SDS011;11215;51.938;8.464;2023-06-22T11:46:08;9.43;;;7.90;;
22097;SDS011;11215;51.938;8.464;2023-06-22T11:48:34;7.88;;;7.28;;
22097;SDS011;11215;51.938;8.464;2023-06-22T11:50:59;8.43;;;7.60;;
22097;SDS011;11215;51.938;8.464;2023-06-22T11:53:26;9.90;;;9.02;;
22097;SDS011;11215;51.938;8.464;2023-06-22T11:55:52;8.63;;;7.85;;
22097;SDS011;11215;51.938;8.464;2023-06-22T11:58:21;9.18;;;8.38;;
22097;SDS011;11215;51.938;8.464;2023-06-22T12:00:47;9.05;;;8.25;;
22097;SDS011;11215;51.938;8.464;2023-06-22T12:03:13;8.70;;;7.95;;
22097;SDS011;11215;51.938;8.464;2023-06-22T12:05:42;8.45;;;7.65;;
22097;SDS011;11215;51.938;8.464;2023-06-22T12:08:07;8.45;;;7.70;;
22097;SDS011;11215;51.938;8.464;2023-06-22T12:10:33;8.20;;;7.50;;
22097;SDS011;11215;51.938;8.464;2023-06-22T12:12:59;8.63;;;7.72;;
22097;SDS011;11215;51.938;8.464;2023-06-22T12:15:25;7.97;;;7.28;;
22097;SDS011;11215;51.938;8.464;2023-06-22T12:17:51;8.40;;;7.10;;
22097;SDS011;11215;51.938;8.464;2023-06-22T12:20:17;8.80;;;7.90;;
22097;SDS011;11215;51.938;8.464;2023-06-22T12:22:44;9.93;;;7.97;;
22097;SDS011;11215;51.938;8.464;2023-06-22T12:25:10;8.20;;;7.50;;
22097;SDS011;11215;51.938;8.464;2023-06-22T12:27:36;7.82;;;6.93;;
22097;SDS011;11215;51.938;8.464;2023-06-22T12:30:02;8.07;;;7.25;;
22097;SDS011;11215;51.938;8.464;2023-06-22T12:32:29;7.38;;;6.68;;
22097;SDS011;11215;51.938;8.464;2023-06-22T12:34:55;8.00;;;7.20;;
22097;SDS011;11215;51.938;8.464;2023-06-22T12:37:21;8.30;;;7.60;;
22097;SDS011;11215;51.938;8.464;2023-06-22T12:39:47;8.15;;;7.45;;
22097;SDS011;11215;51.938;8.464;2023-06-22T12:42:13;8.52;;;7.72;;
22097;SDS011;11215;51.938;8.464;2023-06-22T12:44:40;7.85;;;7.05;;
22097;SDS011;11215;51.938;8.464;2023-06-22T12:47:07;8.60;;;7.90;;
22097;SDS011;11215;51.938;8.464;2023-06-22T12:49:36;8.85;;;7.40;;
22097;SDS011;11215;51.938;8.464;2023-06-22T12:52:02;7.45;;;6.85;;
22097;SDS011;11215;51.938;8.464;2023-06-22T12:54:28;8.40;;;7.60;;
22097;SDS011;11215;51.938;8.464;2023-06-22T12:56:54;8.18;;;7.47;;
22097;SDS011;11215;51.938;8.464;2023-06-22T12:59:21;9.63;;;8.82;;
22097;SDS011;11215;51.938;8.464;2023-06-22T13:01:46;10.60;;;9.43;;
22097;SDS011;11215;51.938;8.464;2023-06-22T13:04:12;8.80;;;7.93;;
22097;SDS011;11215;51.938;8.464;2023-06-22T13:06:42;10.30;;;9.20;;
22097;SDS011;11215;51.938;8.464;2023-06-22T13:09:13;9.90;;;9.00;;
22097;SDS011;11215;51.938;8.464;2023-06-22T13:11:39;10.85;;;9.85;;
22097;SDS011;11215;51.938;8.464;2023-06-22T13:14:05;9.80;;;9.00;;
22097;SDS011;11215;51.938;8.464;2023-06-22T13:16:32;10.43;;;9.43;;
22097;SDS011;11215;51.938;8.464;2023-06-22T13:18:58;12.10;;;9.85;;
22097;SDS011;11215;51.938;8.464;2023-06-22T13:21:23;11.23;;;10.13;;
22097;SDS011;11215;51.938;8.464;2023-06-22T13:23:49;11.10;;;10.07;;
22097;SDS011;11215;51.938;8.464;2023-06-22T13:26:15;10.43;;;9.43;;
22097;SDS011;11215;51.938;8.464;2023-06-22T13:28:40;11.32;;;10.02;;
22097;SDS011;11215;51.938;8.464;2023-06-22T13:31:07;12.25;;;11.05;;
22097;SDS011;11215;51.938;8.464;2023-06-22T13:33:33;12.23;;;10.98;;
22097;SDS011;11215;51.938;8.464;2023-06-22T13:35:59;11.38;;;10.43;;
22097;SDS011;11215;51.938;8.464;2023-06-22T13:38:24;12.70;;;11.50;;
22097;SDS011;11215;51.938;8.464;2023-06-22T13:40:50;13.02;;;11.73;;
22097;SDS011;11215;51.938;8.464;2023-06-22T13:43:17;12.82;;;11.35;;
22097;SDS011;11215;51.938;8.464;2023-06-22T13:45:43;12.27;;;11.05;;
22097;SDS011;11215;51.938;8.464;2023-06-22T13:48:10;14.10;;;12.70;;
22097;SDS011;11215;51.938;8.464;2023-06-22T13:50:36;12.68;;;11.48;;
22097;SDS011;11215;51.938;8.464;2023-06-22T13:53:02;13.70;;;12.23;;
22097;SDS011;11215;51.938;8.464;2023-06-22T13:55:27;13.55;;;12.15;;
22097;SDS011;11215;51.938;8.464;2023-06-22T13:57:53;13.88;;;12.55;;
22097;SDS011;11215;51.938;8.464;2023-06-22T14:00:19;14.40;;;12.90;;
22097;SDS011;11215;51.938;8.464;2023-06-22T14:02:44;14.93;;;12.33;;
22097;SDS011;11215;51.938;8.464;2023-06-22T14:05:10;14.80;;;13.10;;
22097;SDS011;11215;51.938;8.464;2023-06-22T14:07:37;14.10;;;12.13;;
22097;SDS011;11215;51.938;8.464;2023-06-22T14:10:03;12.07;;;10.97;;
22097;SDS011;11215;51.938;8.464;2023-06-22T14:12:29;12.00;;;10.90;;
22097;SDS011;11215;51.938;8.464;2023-06-22T14:14:54;9.57;;;8.67;;
22097;SDS011;11215;51.938;8.464;2023-06-22T14:17:20;10.00;;;9.00;;
22097;SDS011;11215;51.938;8.464;2023-06-22T14:19:50;10.60;;;9.33;;
22097;SDS011;11215;51.938;8.464;2023-06-22T14:22:19;11.53;;;10.33;;
22097;SDS011;11215;51.938;8.464;2023-06-22T14:24:45;10.67;;;9.60;;
22097;SDS011;11215;51.938;8.464;2023-06-22T14:27:12;12.27;;;10.97;;
22097;SDS011;11215;51.938;8.464;2023-06-22T14:29:38;12.57;;;11.27;;
22097;SDS011;11215;51.938;8.464;2023-06-22T14:32:04;12.50;;;11.33;;
22097;SDS011;11215;51.938;8.464;2023-06-22T14:34:31;12.70;;;11.40;;
22097;SDS011;11215;51.938;8.464;2023-06-22T14:37:05;12.93;;;11.53;;
22097;SDS011;11215;51.938;8.464;2023-06-22T14:39:32;12.67;;;11.33;;
22097;SDS011;11215;51.938;8.464;2023-06-22T14:41:58;14.73;;;11.90;;
22097;SDS011;11215;51.938;8.464;2023-06-22T14:44:25;13.60;;;12.13;;